Terminal Aerodrome Forecast
Issued by NWS

Current Version | Previous Version | Text Only | Print | Product List | Glossary On
Versions: 1 2 3 4 5 6 7 8 9 10 11 12 13 14 15 16 17 18
000
FTUS46 KPQR 271738 AAA
TAFONP
TAF AMD
KONP 271738Z 2718/2818 32006KT P6SM VCSH SCT025 BKN050
     FM272200 34010KT P6SM VCSH SCT040 BKN100
     FM280400 VRB05KT P6SM BKN080=

USA.gov is the U.S. government's official web portal to all federal, state and local government web resources and services.